createdAt,value
2023-05-18T00:01:16.847Z,11.65
2023-05-18T00:05:21.796Z,11.67
2023-05-18T00:09:25.811Z,11.67
2023-05-18T00:13:29.840Z,11.68
2023-05-18T00:17:33.071Z,11.68
2023-05-18T00:21:38.292Z,11.68
2023-05-18T00:25:43.400Z,11.67
2023-05-18T00:29:47.162Z,11.66
2023-05-18T00:33:50.578Z,11.66
2023-05-18T00:37:58.346Z,11.64
2023-05-18T00:42:01.481Z,11.63
2023-05-18T00:46:04.665Z,11.62
2023-05-18T00:50:09.401Z,11.64
2023-05-18T00:54:14.029Z,11.62
2023-05-18T00:58:17.851Z,11.62
2023-05-18T01:02:21.576Z,11.61
2023-05-18T01:06:27.457Z,11.62
2023-05-18T01:10:36.011Z,11.62
2023-05-18T01:14:46.374Z,11.63
2023-05-18T01:19:02.380Z,11.62
2023-05-18T01:23:36.514Z,11.60
2023-05-18T01:27:42.653Z,11.60
2023-05-18T01:31:46.055Z,11.61
2023-05-18T01:35:49.407Z,11.62
2023-05-18T01:39:55.654Z,11.63
2023-05-18T01:44:08.176Z,11.64
2023-05-18T01:48:14.002Z,11.65
2023-05-18T01:52:20.817Z,11.64
2023-05-18T01:56:24.985Z,11.64
2023-05-18T02:00:30.950Z,11.64
2023-05-18T02:04:35.402Z,11.63
2023-05-18T02:08:39.398Z,11.62
2023-05-18T02:12:53.760Z,11.62
2023-05-18T02:16:58.498Z,11.63
2023-05-18T02:21:02.412Z,11.63
2023-05-18T02:25:07.775Z,11.65
2023-05-18T02:29:12.190Z,11.66
2023-05-18T02:33:17.959Z,11.67
2023-05-18T02:37:23.501Z,11.67
2023-05-18T02:41:27.004Z,11.69
2023-05-18T02:45:33.118Z,11.71
2023-05-18T02:49:38.244Z,11.71
2023-05-18T02:53:44.458Z,11.71
2023-05-18T02:57:49.519Z,11.71
2023-05-18T03:01:53.265Z,11.71
2023-05-18T03:05:58.900Z,11.71
2023-05-18T03:10:04.708Z,11.72
2023-05-18T03:14:07.843Z,11.71
2023-05-18T03:18:11.150Z,11.72
2023-05-18T03:22:16.140Z,11.71
2023-05-18T03:26:19.278Z,11.68
2023-05-18T03:30:22.590Z,11.69
2023-05-18T03:34:27.153Z,11.67
2023-05-18T03:38:32.396Z,11.68
2023-05-18T03:42:35.824Z,11.68
2023-05-18T03:46:39.204Z,11.69
2023-05-18T03:50:42.857Z,11.71
2023-05-18T03:54:50.095Z,11.73
2023-05-18T03:58:53.170Z,11.74
2023-05-18T04:02:58.070Z,11.76
2023-05-18T04:07:06.525Z,11.77
2023-05-18T04:11:11.821Z,11.79
2023-05-18T04:15:15.889Z,11.77
2023-05-18T04:19:20.687Z,11.80
2023-05-18T04:23:24.175Z,11.78
2023-05-18T04:27:29.818Z,11.79
2023-05-18T04:31:34.834Z,11.80
2023-05-18T04:35:38.499Z,11.80
2023-05-18T04:39:42.403Z,11.81
2023-05-18T04:43:47.724Z,11.84
2023-05-18T04:47:54.515Z,11.88
2023-05-18T04:52:00.387Z,11.91
2023-05-18T04:56:03.688Z,11.94
2023-05-18T05:00:11.611Z,12.01
2023-05-18T05:04:15.116Z,12.05
2023-05-18T05:08:18.236Z,12.12
2023-05-18T05:12:21.385Z,12.14
2023-05-18T05:16:26.279Z,12.25
2023-05-18T05:20:29.903Z,12.34
2023-05-18T05:24:33.758Z,12.43
2023-05-18T05:28:36.877Z,12.58
2023-05-18T05:32:41.579Z,12.70
2023-05-18T05:36:44.739Z,12.82
2023-05-18T05:40:48.020Z,12.93
2023-05-18T05:44:51.122Z,13.07
2023-05-18T05:48:56.766Z,13.21
2023-05-18T05:53:00.204Z,13.35
2023-05-18T05:57:04.396Z,13.50
2023-05-18T06:01:10.979Z,13.67
2023-05-18T06:05:16.052Z,13.78
2023-05-18T06:09:19.026Z,13.91
2023-05-18T06:13:22.357Z,14.04
2023-05-18T06:17:25.821Z,14.15
2023-05-18T06:21:30.486Z,14.27
2023-05-18T06:25:35.446Z,14.37
2023-05-18T06:29:39.030Z,14.46
2023-05-18T06:33:44.470Z,14.58
2023-05-18T06:37:49.254Z,14.73
2023-05-18T06:41:52.933Z,14.86
2023-05-18T06:45:57.269Z,15.01
2023-05-18T06:50:00.507Z,15.15
2023-05-18T06:54:06.038Z,15.29
2023-05-18T06:58:09.613Z,15.36
2023-05-18T07:02:13.804Z,15.43
2023-05-18T07:06:17.720Z,15.49
2023-05-18T07:10:23.148Z,15.57
2023-05-18T07:14:26.579Z,15.65
2023-05-18T07:18:30.047Z,15.73
2023-05-18T07:22:33.378Z,15.79
2023-05-18T07:26:38.647Z,15.89
2023-05-18T07:30:43.326Z,16.00
2023-05-18T07:34:48.057Z,16.12
2023-05-18T07:38:55.031Z,16.22
2023-05-18T07:43:00.020Z,16.28
2023-05-18T07:47:03.524Z,16.29
2023-05-18T07:51:07.612Z,16.31
2023-05-18T07:55:11.457Z,16.26
2023-05-18T07:59:16.505Z,16.18
2023-05-18T08:03:20.574Z,16.06
2023-05-18T08:07:26.926Z,15.97
2023-05-18T08:11:30.208Z,15.86
2023-05-18T08:15:35.592Z,15.65
2023-05-18T08:19:41.099Z,15.36
2023-05-18T08:23:45.060Z,15.09
2023-05-18T08:27:48.380Z,14.83
2023-05-18T08:31:54.386Z,14.57
2023-05-18T08:35:59.120Z,14.34
2023-05-18T08:40:05.272Z,14.20
2023-05-18T08:44:13.450Z,14.07
2023-05-18T08:48:18.425Z,13.98
2023-05-18T08:52:28.054Z,13.91
2023-05-18T08:56:34.000Z,13.86
2023-05-18T09:00:38.700Z,13.83
2023-05-18T09:04:45.231Z,13.83
2023-05-18T09:08:48.831Z,13.86
2023-05-18T09:12:53.469Z,13.92
2023-05-18T09:16:57.146Z,13.98
2023-05-18T09:21:02.448Z,14.08
2023-05-18T09:25:09.920Z,14.21
2023-05-18T09:29:21.042Z,14.35
2023-05-18T09:33:27.917Z,14.50
2023-05-18T09:37:33.119Z,14.69
2023-05-18T09:41:36.676Z,14.94
2023-05-18T09:45:44.981Z,15.29
2023-05-18T09:49:48.903Z,15.62
2023-05-18T09:53:57.373Z,15.99
2023-05-18T09:58:03.456Z,16.34
2023-05-18T10:02:09.413Z,16.67
2023-05-18T10:06:13.714Z,16.98
2023-05-18T10:10:23.138Z,17.26
2023-05-18T10:14:31.609Z,17.42
2023-05-18T10:18:37.807Z,17.51
2023-05-18T10:22:42.390Z,17.50
2023-05-18T10:26:52.986Z,17.49
2023-05-18T10:30:58.918Z,17.42
2023-05-18T10:35:06.125Z,17.44
2023-05-18T10:39:12.500Z,17.46
2023-05-18T10:43:21.264Z,17.51
2023-05-18T10:47:26.677Z,17.53
2023-05-18T10:51:32.777Z,17.53
2023-05-18T10:55:36.188Z,17.53
2023-05-18T10:59:48.205Z,17.51
2023-05-18T11:03:52.157Z,17.50
2023-05-18T11:08:04.338Z,17.48
2023-05-18T11:12:13.251Z,17.50
2023-05-18T11:16:19.074Z,17.48
2023-05-18T11:20:27.251Z,17.47
2023-05-18T11:24:34.685Z,17.48
2023-05-18T11:28:44.793Z,17.49
2023-05-18T11:32:52.974Z,17.50
2023-05-18T11:36:58.251Z,17.47
2023-05-18T11:41:01.801Z,17.48
2023-05-18T11:45:09.157Z,17.50
2023-05-18T11:49:18.366Z,17.54
2023-05-18T11:53:24.135Z,17.57
2023-05-18T11:57:29.276Z,17.55
2023-05-18T12:01:36.292Z,17.51
2023-05-18T12:05:44.598Z,17.48
2023-05-18T12:09:51.442Z,17.45
2023-05-18T12:13:56.679Z,17.44
2023-05-18T12:18:00.658Z,17.45
2023-05-18T12:22:06.292Z,17.48
2023-05-18T12:26:10.203Z,17.50
2023-05-18T12:30:14.697Z,17.62
2023-05-18T12:34:18.209Z,17.63
2023-05-18T12:38:28.485Z,17.76
2023-05-18T12:42:32.894Z,17.90
2023-05-18T12:46:36.372Z,18.05
2023-05-18T12:50:48.490Z,18.24
2023-05-18T12:55:00.097Z,18.39
2023-05-18T12:59:06.349Z,18.37
2023-05-18T13:03:14.726Z,18.28
2023-05-18T13:07:19.024Z,18.19
2023-05-18T13:11:26.387Z,18.12
2023-05-18T13:15:34.759Z,18.10
2023-05-18T13:19:38.505Z,18.05
2023-05-18T13:23:41.982Z,18.03
2023-05-18T13:27:49.083Z,17.94
2023-05-18T13:31:54.854Z,17.85
2023-05-18T13:35:58.690Z,17.79
2023-05-18T13:40:05.307Z,17.68
2023-05-18T13:44:09.969Z,17.59
2023-05-18T13:48:14.804Z,17.40
2023-05-18T13:52:20.630Z,17.28
2023-05-18T13:56:25.467Z,17.08
2023-05-18T14:00:33.674Z,16.94
2023-05-18T14:04:39.496Z,16.70
2023-05-18T14:08:42.740Z,16.58
2023-05-18T14:12:46.896Z,16.51
2023-05-18T14:16:52.021Z,16.53
2023-05-18T14:21:01.184Z,16.58
2023-05-18T14:25:04.798Z,16.58
2023-05-18T14:29:08.139Z,16.55
2023-05-18T14:33:11.648Z,16.62
2023-05-18T14:37:16.017Z,16.63
2023-05-18T14:41:19.420Z,16.74
2023-05-18T14:45:22.902Z,16.86
2023-05-18T14:49:25.921Z,16.97
2023-05-18T14:53:31.104Z,17.15
2023-05-18T14:57:34.376Z,17.29
2023-05-18T15:01:40.127Z,17.46
2023-05-18T15:05:44.769Z,17.58
2023-05-18T15:09:50.300Z,17.70
2023-05-18T15:13:54.230Z,17.81
2023-05-18T15:17:58.121Z,17.91
2023-05-18T15:22:01.766Z,18.03
2023-05-18T15:26:08.938Z,18.12
2023-05-18T15:30:13.354Z,18.15
2023-05-18T15:34:16.946Z,18.14
2023-05-18T15:38:21.590Z,18.08
2023-05-18T15:42:26.285Z,18.04
2023-05-18T15:46:35.002Z,17.95
2023-05-18T15:50:38.617Z,17.87
2023-05-18T15:54:42.128Z,17.81
2023-05-18T15:58:47.463Z,17.75
2023-05-18T16:02:50.828Z,17.68
2023-05-18T16:06:54.214Z,17.62
2023-05-18T16:10:59.079Z,17.58
2023-05-18T16:15:05.913Z,17.53
2023-05-18T16:19:12.380Z,17.46
2023-05-18T16:23:15.798Z,17.45
2023-05-18T16:27:20.283Z,17.43
2023-05-18T16:31:25.450Z,17.41
2023-05-18T16:35:31.250Z,17.37
2023-05-18T16:39:34.923Z,17.30
2023-05-18T16:43:38.150Z,17.23
2023-05-18T16:47:45.368Z,17.10
2023-05-18T16:51:48.480Z,16.95
2023-05-18T16:55:51.657Z,16.82
2023-05-18T16:59:55.491Z,16.65
2023-05-18T17:04:00.554Z,16.54
2023-05-18T17:08:05.170Z,16.42
2023-05-18T17:12:11.358Z,16.32
2023-05-18T17:16:22.200Z,16.22
2023-05-18T17:20:27.218Z,16.14
2023-05-18T17:24:30.338Z,16.05
2023-05-18T17:28:33.533Z,15.98
2023-05-18T17:32:42.430Z,15.95
2023-05-18T17:36:48.007Z,15.89
2023-05-18T17:40:51.396Z,15.84
2023-05-18T17:44:55.224Z,15.77
2023-05-18T17:49:02.348Z,15.68
2023-05-18T17:53:08.234Z,15.61
2023-05-18T17:57:11.536Z,15.52
2023-05-18T18:01:15.031Z,15.44
2023-05-18T18:05:18.451Z,15.35
2023-05-18T18:09:23.528Z,15.27
2023-05-18T18:13:26.824Z,15.20
2023-05-18T18:17:30.388Z,15.10
2023-05-18T18:21:33.969Z,15.01
2023-05-18T18:25:40.295Z,14.93
2023-05-18T18:29:45.696Z,14.84
2023-05-18T18:33:50.682Z,14.76
2023-05-18T18:37:55.038Z,14.68
2023-05-18T18:42:02.551Z,14.61
2023-05-18T18:46:10.500Z,14.54
2023-05-18T18:50:13.771Z,14.48
2023-05-18T18:54:17.462Z,14.42
2023-05-18T18:58:25.403Z,14.37
2023-05-18T19:02:29.202Z,14.33
2023-05-18T19:06:33.562Z,14.28
2023-05-18T19:10:36.926Z,14.25
2023-05-18T19:14:43.361Z,14.22
2023-05-18T19:18:47.326Z,14.18
2023-05-18T19:22:50.438Z,14.15
2023-05-18T19:26:53.516Z,14.12
2023-05-18T19:30:58.148Z,14.08
2023-05-18T19:35:01.939Z,14.06
2023-05-18T19:39:05.236Z,14.02
2023-05-18T19:43:12.165Z,14.00
2023-05-18T19:47:18.377Z,13.98
2023-05-18T19:51:24.204Z,13.96
2023-05-18T19:55:27.754Z,13.94
2023-05-18T19:59:32.339Z,13.92
2023-05-18T20:03:42.297Z,13.89
2023-05-18T20:07:46.993Z,13.84
2023-05-18T20:11:50.738Z,13.81
2023-05-18T20:15:54.542Z,13.78
2023-05-18T20:20:00.497Z,13.75
2023-05-18T20:24:05.648Z,13.72
2023-05-18T20:28:09.735Z,13.70
2023-05-18T20:32:13.064Z,13.67
2023-05-18T20:36:17.544Z,13.67
2023-05-18T20:40:21.597Z,13.65
2023-05-18T20:44:28.054Z,13.64
2023-05-18T20:48:32.164Z,13.62
2023-05-18T20:52:37.392Z,13.61
2023-05-18T20:56:43.546Z,13.59
2023-05-18T21:00:48.189Z,13.57
2023-05-18T21:04:51.757Z,13.56
2023-05-18T21:08:57.137Z,13.54
2023-05-18T21:13:00.689Z,13.52
2023-05-18T21:17:13.796Z,13.51
2023-05-18T21:21:17.285Z,13.50
2023-05-18T21:25:24.702Z,13.49
2023-05-18T21:29:28.340Z,13.47
2023-05-18T21:33:33.453Z,13.44
2023-05-18T21:37:37.881Z,13.43
2023-05-18T21:41:56.116Z,13.41
2023-05-18T21:45:59.297Z,13.39
2023-05-18T21:50:03.700Z,13.37
2023-05-18T21:54:07.603Z,13.33
2023-05-18T21:58:12.137Z,13.32
2023-05-18T22:02:15.215Z,13.29
2023-05-18T22:06:19.254Z,13.27
2023-05-18T22:10:22.620Z,13.26
2023-05-18T22:14:27.466Z,13.24
2023-05-18T22:18:32.504Z,13.22
2023-05-18T22:22:35.850Z,13.20
2023-05-18T22:26:39.265Z,13.18
2023-05-18T22:30:44.102Z,13.18
2023-05-18T22:34:48.052Z,13.14
2023-05-18T22:38:52.718Z,13.13
2023-05-18T22:42:57.274Z,13.13
2023-05-18T22:47:02.373Z,13.13
2023-05-18T22:51:06.635Z,13.11
2023-05-18T22:55:13.714Z,13.10
2023-05-18T22:59:17.067Z,13.10
2023-05-18T23:03:22.398Z,13.09
2023-05-18T23:07:25.679Z,13.08
2023-05-18T23:11:31.770Z,13.06
2023-05-18T23:15:35.650Z,13.06
2023-05-18T23:19:40.998Z,13.05
2023-05-18T23:23:46.101Z,13.05
2023-05-18T23:27:49.757Z,13.04
2023-05-18T23:31:53.235Z,13.03
2023-05-18T23:36:03.415Z,13.03
2023-05-18T23:40:13.813Z,13.01
2023-05-18T23:44:18.182Z,12.98
2023-05-18T23:48:25.124Z,12.97
2023-05-18T23:52:34.439Z,12.95
2023-05-18T23:56:40.740Z,12.92
